Time;durP1;ratioP1;P1;durP2;ratioP2;P2;SDS_P1;SDS_P2;PMS_P1;PMS_P2;Temp;Humidity;BMP_temperature;BMP_pressure;BME280_temperature;BME280_humidity;BME280_pressure;Samples;Min_cycle;Max_cycle;Signal;HPM_P1;HPM_P2
2022/05/03 00:00:09;;;;;;;8.17;6.00;;;11.50;99.90;;;;;;5052790;28;20187;-63
2022/05/03 00:02:55;;;;;;;7.00;6.37;;;11.50;99.90;;;;;;5052738;28;20181;-63
2022/05/03 00:05:36;;;;;;;6.87;6.17;;;11.40;99.90;;;;;;5052655;28;20210;-63
2022/05/03 00:08:07;;;;;;;6.53;5.77;;;11.30;99.90;;;;;;5052393;28;20241;-63
2022/05/03 00:10:45;;;;;;;6.03;5.53;;;11.30;99.90;;;;;;5052662;28;20197;-63
2022/05/03 00:13:17;;;;;;;7.60;6.60;;;11.20;99.90;;;;;;5052592;28;20183;-63
2022/05/03 00:15:45;;;;;;;7.10;6.40;;;11.20;99.90;;;;;;5052578;28;20270;-63
2022/05/03 00:18:14;;;;;;;8.83;6.47;;;11.10;99.90;;;;;;5052296;28;20199;-64
2022/05/03 00:20:46;;;;;;;7.50;6.47;;;11.10;99.90;;;;;;5052487;28;20193;-63
2022/05/03 00:23:13;;;;;;;7.30;6.13;;;11.00;99.90;;;;;;5052126;28;20240;-64
2022/05/03 00:25:41;;;;;;;7.60;6.87;;;11.00;99.90;;;;;;5052300;28;20265;-63
2022/05/03 00:28:09;;;;;;;7.63;6.50;;;10.90;99.90;;;;;;5052357;28;20200;-63
2022/05/03 00:30:39;;;;;;;7.40;6.30;;;10.90;99.90;;;;;;5051910;28;20201;-63
2022/05/03 00:33:09;;;;;;;6.93;6.23;;;10.80;99.90;;;;;;5052273;28;20209;-63
2022/05/03 00:35:36;;;;;;;7.40;6.70;;;10.70;99.90;;;;;;5052225;28;20193;-63
2022/05/03 00:38:05;;;;;;;8.57;6.93;;;10.70;99.90;;;;;;5052103;28;20205;-63
2022/05/03 00:40:34;;;;;;;7.47;6.57;;;10.60;99.90;;;;;;5051706;28;20192;-63
2022/05/03 00:43:12;;;;;;;7.53;6.70;;;10.60;99.90;;;;;;5052016;28;20201;-63
2022/05/03 00:45:46;;;;;;;7.50;6.57;;;10.50;99.90;;;;;;5051968;28;20220;-63
2022/05/03 00:48:36;;;;;;;7.90;6.90;;;10.40;99.90;;;;;;5052367;28;20196;-63
2022/05/03 00:51:10;;;;;;;8.10;7.30;;;10.40;99.90;;;;;;5052542;28;20188;-63
2022/05/03 00:53:55;;;;;;;7.60;6.50;;;10.30;99.90;;;;;;5051729;28;20180;-63
2022/05/03 00:56:35;;;;;;;7.80;7.00;;;10.30;99.90;;;;;;5051489;28;20276;-63
2022/05/03 00:59:08;;;;;;;8.90;6.90;;;10.20;99.90;;;;;;5051799;28;20181;-63
2022/05/03 01:01:47;;;;;;;8.20;7.40;;;10.20;99.90;;;;;;5051754;28;20189;-63
2022/05/03 01:04:25;;;;;;;7.33;6.63;;;10.10;99.90;;;;;;5050309;28;20187;-62
2022/05/03 01:07:03;;;;;;;7.50;6.80;;;10.10;99.90;;;;;;5049366;28;20685;-62
2022/05/03 01:09:40;;;;;;;7.70;7.00;;;10.00;99.90;;;;;;5032305;28;20196;-63
2022/05/03 01:12:25;;;;;;;7.40;6.70;;;10.00;99.90;;;;;;5032415;28;20188;-63
2022/05/03 01:15:08;;;;;;;7.23;6.63;;;9.90;99.90;;;;;;5032322;28;20181;-63
2022/05/03 01:17:43;;;;;;;7.33;6.47;;;9.80;99.90;;;;;;5044159;28;20216;-63
2022/05/03 01:20:14;;;;;;;8.73;6.97;;;9.80;99.90;;;;;;5048837;28;20186;-63
2022/05/03 01:23:31;;;;;;;7.83;7.03;;;9.80;99.90;;;;;;5051806;28;20706;-63
2022/05/03 01:26:26;;;;;;;7.00;6.40;;;9.70;99.90;;;;;;5051949;28;20200;-63
2022/05/03 01:29:12;;;;;;;7.13;6.43;;;9.60;99.90;;;;;;5050984;28;20644;-63
2022/05/03 01:31:40;;;;;;;6.93;6.30;;;9.60;99.90;;;;;;5051895;28;20172;-63
2022/05/03 01:34:10;;;;;;;7.20;6.50;;;9.50;99.90;;;;;;5052037;28;20200;-62
2022/05/03 01:36:48;;;;;;;7.37;6.60;;;9.50;99.90;;;;;;5051867;28;20191;-63
2022/05/03 01:39:29;;;;;;;7.03;6.33;;;9.50;99.90;;;;;;5051838;28;20203;-63
2022/05/03 01:42:01;;;;;;;7.40;6.73;;;9.40;99.90;;;;;;5051839;28;20187;-63
2022/05/03 01:44:39;;;;;;;7.83;6.33;;;9.40;99.90;;;;;;5051829;28;20188;-63
2022/05/03 01:47:18;;;;;;;7.03;6.23;;;9.40;99.90;;;;;;5051734;28;20197;-63
2022/05/03 01:53:02;;;;;;;7.67;6.90;;;9.30;99.90;;;;;;5011070;28;20239;-63
2022/05/03 01:56:15;;;;;;;6.93;6.33;;;9.20;99.90;;;;;;5013704;28;20289;-63
2022/05/03 01:59:02;;;;;;;8.23;5.93;;;9.10;99.90;;;;;;5008964;28;20665;-63
2022/05/03 02:01:45;;;;;;;6.23;5.70;;;9.10;99.90;;;;;;5014304;28;20706;-62
2022/05/03 02:04:37;;;;;;;6.90;6.10;;;9.00;99.90;;;;;;5015253;28;20259;-62
2022/05/03 02:07:07;;;;;;;6.90;6.20;;;9.10;99.90;;;;;;5013304;28;20236;-62
2022/05/03 02:09:51;;;;;;;6.73;6.03;;;9.00;99.90;;;;;;5013394;28;20201;-63
2022/05/03 02:12:21;;;;;;;6.47;5.83;;;9.00;99.90;;;;;;5013065;28;20565;-63
2022/05/03 02:14:52;;;;;;;7.50;6.00;;;9.00;99.90;;;;;;5013179;28;20224;-64
2022/05/03 02:17:46;;;;;;;6.97;6.10;;;8.90;99.90;;;;;;5012712;28;20280;-63
2022/05/03 02:20:28;;;;;;;6.00;5.50;;;8.90;99.90;;;;;;5010684;28;20218;-63
2022/05/03 02:23:12;;;;;;;7.47;5.90;;;8.80;99.90;;;;;;5012978;28;20263;-63
2022/05/03 02:26:05;;;;;;;7.17;6.20;;;8.80;99.90;;;;;;5013159;28;20381;-64
2022/05/03 02:28:39;;;;;;;6.77;6.03;;;8.80;99.90;;;;;;5032437;28;20666;-63
2022/05/03 02:31:13;;;;;;;6.80;6.00;;;8.70;99.90;;;;;;5055089;28;20583;-63
2022/05/03 02:33:46;;;;;;;6.80;5.97;;;8.70;99.90;;;;;;5055017;28;20211;-62
2022/05/03 02:36:15;;;;;;;6.43;5.70;;;8.70;99.90;;;;;;5054805;28;20625;-63
2022/05/03 02:38:51;;;;;;;7.07;5.67;;;8.60;99.90;;;;;;5054693;28;20737;-63
2022/05/03 02:41:20;;;;;;;6.23;5.63;;;8.60;99.90;;;;;;5055056;28;20202;-62
2022/05/03 02:43:48;;;;;;;6.43;5.87;;;8.50;99.90;;;;;;5054972;28;20207;-62
2022/05/03 02:46:38;;;;;;;6.73;5.90;;;8.60;99.90;;;;;;5054446;28;20292;-62
2022/05/03 02:49:12;;;;;;;6.53;5.93;;;8.50;99.90;;;;;;5055013;28;20195;-62
2022/05/03 02:51:45;;;;;;;6.47;5.80;;;8.40;99.90;;;;;;5054892;28;20210;-63
2022/05/03 02:54:28;;;;;;;5.93;5.43;;;8.40;99.90;;;;;;5054825;28;20201;-63
2022/05/03 02:57:07;;;;;;;6.03;5.43;;;8.40;99.90;;;;;;5054812;28;20175;-63
2022/05/03 03:02:34;;;;;;;7.47;5.37;;;8.30;99.90;;;;;;5055584;28;20228;-62
2022/05/03 03:05:07;;;;;;;41.60;9.17;;;8.20;99.90;;;;;;5054747;28;20214;-61
2022/05/03 03:07:44;;;;;;;15.50;6.57;;;8.20;99.90;;;;;;5054550;28;20238;-62
2022/05/03 03:10:18;;;;;;;6.33;5.73;;;8.20;99.90;;;;;;5055423;28;20195;-63
2022/05/03 03:12:54;;;;;;;19.03;6.93;;;8.20;99.90;;;;;;5054625;28;20276;-63
2022/05/03 03:15:27;;;;;;;6.10;5.50;;;8.20;99.90;;;;;;5054165;28;20296;-62
2022/05/03 03:17:56;;;;;;;6.40;5.80;;;8.10;99.90;;;;;;5054277;28;20206;-62
2022/05/03 03:20:26;;;;;;;6.73;6.03;;;8.10;99.90;;;;;;5054487;28;20242;-62
2022/05/03 03:22:54;;;;;;;8.70;6.33;;;8.10;99.90;;;;;;5054215;28;20190;-63
2022/05/03 03:25:22;;;;;;;6.73;6.07;;;8.10;99.90;;;;;;5054781;28;20625;-63
2022/05/03 03:27:51;;;;;;;7.13;5.83;;;8.10;99.90;;;;;;5056841;28;20213;-62
2022/05/03 03:30:20;;;;;;;6.10;5.60;;;8.00;99.90;;;;;;5056527;28;20225;-62
2022/05/03 03:32:49;;;;;;;6.60;6.00;;;8.00;99.90;;;;;;5053913;28;20721;-62
2022/05/03 03:35:17;;;;;;;6.30;5.70;;;8.00;99.90;;;;;;5054140;28;20308;-62
2022/05/03 03:37:46;;;;;;;6.37;5.77;;;8.00;99.90;;;;;;5054498;28;20665;-62
2022/05/03 03:40:14;;;;;;;6.13;5.47;;;7.90;99.90;;;;;;5055316;28;20209;-62
2022/05/03 03:42:43;;;;;;;6.87;6.23;;;7.90;99.90;;;;;;5054510;28;20206;-62
2022/05/03 03:45:12;;;;;;;6.13;5.50;;;7.90;99.90;;;;;;5053633;28;20223;-62
2022/05/03 03:47:40;;;;;;;6.50;5.33;;;7.90;99.90;;;;;;5053810;28;20281;-61
2022/05/03 03:50:09;;;;;;;8.63;5.80;;;7.80;99.90;;;;;;5053718;28;20608;-62
2022/05/03 03:52:39;;;;;;;6.03;5.50;;;7.80;99.90;;;;;;5053636;28;20198;-62
2022/05/03 03:55:09;;;;;;;6.27;5.60;;;7.80;99.90;;;;;;5053242;28;20200;-62
2022/05/03 03:57:37;;;;;;;5.70;5.20;;;7.80;99.90;;;;;;5053688;28;20260;-63
2022/05/03 04:00:07;;;;;;;5.73;5.23;;;7.80;99.90;;;;;;5053787;28;20197;-62
2022/05/03 04:02:35;;;;;;;6.10;5.40;;;7.70;99.90;;;;;;5054427;28;20192;-62
2022/05/03 04:05:03;;;;;;;6.73;5.20;;;7.70;99.90;;;;;;5054049;28;20208;-62
2022/05/03 04:07:30;;;;;;;9.00;5.63;;;7.70;99.90;;;;;;5054499;28;20242;-63
2022/05/03 04:09:57;;;;;;;11.43;6.23;;;7.70;99.90;;;;;;5054179;28;20217;-63
2022/05/03 04:12:26;;;;;;;6.20;5.60;;;7.70;99.90;;;;;;5053759;28;20256;-63
2022/05/03 04:14:54;;;;;;;6.60;5.47;;;7.60;99.90;;;;;;5053528;28;20199;-63
2022/05/03 04:17:20;;;;;;;10.13;6.20;;;7.60;99.90;;;;;;5054047;28;20190;-63
2022/05/03 04:19:48;;;;;;;5.90;5.40;;;7.60;99.90;;;;;;5054071;28;20208;-62
2022/05/03 04:22:25;;;;;;;5.80;5.30;;;7.60;99.90;;;;;;5053294;28;20544;-62
2022/05/03 04:24:53;;;;;;;6.40;5.80;;;7.60;99.90;;;;;;5053788;28;20229;-63
2022/05/03 04:27:21;;;;;;;6.00;5.40;;;7.60;99.90;;;;;;5053255;28;20217;-63
2022/05/03 04:29:50;;;;;;;5.70;5.20;;;7.60;99.90;;;;;;5053699;28;20202;-63
2022/05/03 04:32:18;;;;;;;6.43;5.83;;;7.60;99.90;;;;;;5053523;28;20201;-62
2022/05/03 04:34:45;;;;;;;6.10;5.50;;;7.60;99.90;;;;;;5053361;28;20201;-62
2022/05/03 04:37:13;;;;;;;6.10;5.50;;;7.60;99.90;;;;;;5055227;28;20206;-63
2022/05/03 04:39:40;;;;;;;6.30;5.70;;;7.70;99.90;;;;;;5053960;28;20236;-63
2022/05/03 04:42:08;;;;;;;5.97;5.47;;;7.70;99.90;;;;;;5055538;28;20207;-63
2022/05/03 04:44:36;;;;;;;7.73;5.47;;;7.70;99.90;;;;;;5053980;28;20298;-67
2022/05/03 04:47:05;;;;;;;7.10;5.47;;;7.70;99.90;;;;;;5052566;28;20232;-59
2022/05/03 04:49:32;;;;;;;6.10;5.60;;;7.70;99.90;;;;;;5053124;28;20202;-63
2022/05/03 04:51:59;;;;;;;12.30;6.07;;;7.80;99.90;;;;;;5053698;28;20242;-60
2022/05/03 04:54:26;;;;;;;8.80;5.70;;;7.80;99.90;;;;;;5052826;28;20197;-59
2022/05/03 04:56:57;;;;;;;6.53;5.93;;;7.80;99.90;;;;;;5052717;28;20204;-60
2022/05/03 04:59:24;;;;;;;7.07;5.07;;;7.90;99.90;;;;;;5052512;28;20202;-59
2022/05/03 05:01:51;;;;;;;6.43;5.77;;;7.90;99.90;;;;;;5053315;28;20203;-59
2022/05/03 05:04:20;;;;;;;6.00;5.40;;;8.00;99.90;;;;;;5054198;28;20209;-60
2022/05/03 05:06:47;;;;;;;6.20;5.57;;;8.00;99.90;;;;;;5053076;28;20235;-61
2022/05/03 05:09:14;;;;;;;7.03;5.60;;;8.10;99.90;;;;;;5053630;28;20180;-60
2022/05/03 05:11:41;;;;;;;7.67;5.93;;;8.10;99.90;;;;;;5052599;28;20197;-60
2022/05/03 05:14:08;;;;;;;6.83;5.87;;;8.20;99.90;;;;;;5053181;28;20210;-60
2022/05/03 05:16:36;;;;;;;7.40;5.63;;;8.30;99.90;;;;;;5052491;28;20190;-63
2022/05/03 05:19:03;;;;;;;7.17;5.47;;;8.50;99.90;;;;;;5052394;28;20233;-62
2022/05/03 05:21:32;;;;;;;6.30;5.50;;;8.70;99.90;;;;;;5052345;28;20245;-62
2022/05/03 05:24:00;;;;;;;9.30;5.77;;;9.00;99.90;;;;;;5052625;28;20212;-62
2022/05/03 05:26:27;;;;;;;7.67;6.10;;;9.30;99.90;;;;;;5052836;28;20314;-63
2022/05/03 05:28:54;;;;;;;12.20;6.03;;;9.40;99.90;;;;;;5056519;28;20608;-62
2022/05/03 05:31:21;;;;;;;7.80;5.67;;;9.60;99.90;;;;;;5056432;28;20327;-63
2022/05/03 05:33:48;;;;;;;11.83;6.30;;;9.70;99.90;;;;;;5056411;28;20219;-62
2022/05/03 05:36:15;;;;;;;8.27;5.57;;;9.60;99.90;;;;;;5056288;28;20208;-62
2022/05/03 05:38:43;;;;;;;8.43;6.03;;;9.50;99.90;;;;;;5055764;28;20286;-62
2022/05/03 05:41:14;;;;;;;8.47;5.70;;;9.50;99.90;;;;;;5056100;28;20208;-62
2022/05/03 05:43:42;;;;;;;11.07;6.67;;;9.50;99.90;;;;;;5056069;28;20203;-62
2022/05/03 05:46:10;;;;;;;6.30;5.70;;;9.60;99.90;;;;;;5055893;28;20574;-62
2022/05/03 05:48:39;;;;;;;6.20;5.60;;;9.60;99.90;;;;;;5055755;28;20204;-62
2022/05/03 05:51:06;;;;;;;7.20;6.03;;;9.90;99.90;;;;;;5055554;28;20283;-62
2022/05/03 05:53:33;;;;;;;6.10;5.50;;;10.20;99.90;;;;;;5055691;28;20673;-61
2022/05/03 05:56:03;;;;;;;6.03;5.43;;;10.50;99.90;;;;;;5055863;28;20202;-63
2022/05/03 05:58:30;;;;;;;7.47;5.53;;;10.90;99.90;;;;;;5055221;28;20210;-62
2022/05/03 06:00:57;;;;;;;11.00;6.47;;;11.10;99.90;;;;;;5055581;28;20225;-59
2022/05/03 06:03:26;;;;;;;5.87;5.30;;;11.20;99.90;;;;;;5055424;28;20199;-59
2022/05/03 06:05:53;;;;;;;8.43;5.53;;;11.40;99.90;;;;;;5055185;28;20220;-59
2022/05/03 06:08:20;;;;;;;6.57;5.93;;;11.70;99.90;;;;;;5054504;28;20235;-59
2022/05/03 06:10:49;;;;;;;8.83;6.23;;;11.80;96.40;;;;;;5055253;28;20203;-60
2022/05/03 06:13:17;;;;;;;6.97;6.03;;;12.20;90.00;;;;;;5055230;28;20215;-59
2022/05/03 06:15:45;;;;;;;7.07;5.53;;;12.60;57.50;;;;;;5055197;28;20287;-59
2022/05/03 06:18:13;;;;;;;8.60;6.17;;;12.70;45.70;;;;;;5054595;28;20195;-60
2022/05/03 06:20:40;;;;;;;12.90;6.20;;;12.90;32.80;;;;;;5054826;28;20215;-60
2022/05/03 06:23:07;;;;;;;7.10;5.63;;;13.10;25.80;;;;;;5054654;28;20203;-59
2022/05/03 06:25:34;;;;;;;10.90;6.17;;;13.30;14.80;;;;;;5054636;28;20668;-60
2022/05/03 06:28:01;;;;;;;5.47;5.07;;;13.70;5.30;;;;;;5054474;28;20327;-60
2022/05/03 06:30:31;;;;;;;10.83;5.53;;;13.90;1.00;;;;;;5054288;28;20204;-60
2022/05/03 06:32:58;;;;;;;5.67;5.17;;;14.10;1.00;;;;;;5054862;28;20199;-60
2022/05/03 06:35:25;;;;;;;7.57;5.70;;;14.20;1.00;;;;;;5054354;28;20613;-60
2022/05/03 06:37:52;;;;;;;7.53;5.00;;;14.40;1.00;;;;;;5053912;28;20605;-60
2022/05/03 06:40:19;;;;;;;5.30;4.80;;;14.90;1.00;;;;;;5053768;28;20206;-61
2022/05/03 06:42:46;;;;;;;5.57;4.73;;;15.40;1.00;;;;;;5054323;28;20682;-61
2022/05/03 06:45:13;;;;;;;5.03;4.63;;;15.40;1.00;;;;;;5054181;28;20195;-61
2022/05/03 06:47:42;;;;;;;5.37;4.87;;;15.70;1.00;;;;;;5053631;28;20210;-61
2022/05/03 06:50:10;;;;;;;5.10;4.60;;;15.80;1.00;;;;;;5053819;28;20657;-61
2022/05/03 06:52:37;;;;;;;5.40;4.90;;;15.80;1.00;;;;;;5054205;28;20215;-61
2022/05/03 06:55:06;;;;;;;9.63;4.67;;;16.00;1.00;;;;;;5053704;28;20736;-61
2022/05/03 06:57:33;;;;;;;4.43;4.03;;;16.70;1.00;;;;;;5054374;28;20265;-61
2022/05/03 07:00:02;;;;;;;4.50;4.10;;;16.70;1.00;;;;;;5054395;28;20287;-61
2022/05/03 07:02:31;;;;;;;4.57;4.17;;;16.50;1.00;;;;;;5054275;28;20203;-62
2022/05/03 07:05:00;;;;;;;5.23;4.07;;;16.60;1.00;;;;;;5054037;28;20203;-61
2022/05/03 07:07:27;;;;;;;7.93;3.87;;;16.80;1.00;;;;;;5053643;28;20571;-61
2022/05/03 07:09:55;;;;;;;6.07;3.93;;;17.00;1.00;;;;;;5054321;28;20196;-64
2022/05/03 07:12:22;;;;;;;6.43;3.97;;;17.10;1.00;;;;;;5053861;28;20704;-64
2022/05/03 07:14:49;;;;;;;5.38;3.83;;;17.40;1.00;;;;;;5053797;28;20202;-64
2022/05/03 07:22:50;;;;;;;4.15;3.30;;;18.40;1.00;;;;;;5054141;28;20195;-64
2022/05/03 07:25:18;;;;;;;4.93;3.38;;;18.60;1.00;;;;;;5053701;28;20184;-64
2022/05/03 07:27:46;;;;;;;5.15;3.00;;;18.60;1.00;;;;;;5053951;28;20227;-64
2022/05/03 07:30:14;;;;;;;3.45;3.25;;;18.80;1.00;;;;;;5053736;28;20204;-64
2022/05/03 07:32:42;;;;;;;10.55;4.40;;;18.40;1.00;;;;;;5053754;28;20219;-63
2022/05/03 07:35:11;;;;;;;6.80;3.70;;;18.20;1.00;;;;;;5053782;28;20192;-63
2022/05/03 07:37:39;;;;;;;4.93;3.13;;;18.10;1.00;;;;;;5053638;28;20246;-64
2022/05/03 07:40:07;;;;;;;5.75;3.08;;;18.50;1.00;;;;;;5053763;28;20561;-64
2022/05/03 07:42:35;;;;;;;3.03;2.70;;;19.10;1.00;;;;;;5053795;28;20781;-64
2022/05/03 07:45:02;;;;;;;3.75;3.10;;;19.10;1.00;;;;;;5053878;28;20207;-64
2022/05/03 07:47:30;;;;;;;4.82;3.05;;;19.20;1.00;;;;;;5053403;28;20226;-64
2022/05/03 07:49:57;;;;;;;4.20;2.85;;;19.10;1.00;;;;;;5052599;28;20195;-64
2022/05/03 07:52:27;;;;;;;4.32;3.30;;;19.50;1.00;;;;;;5053432;28;20267;-64
2022/05/03 07:54:54;;;;;;;4.55;2.90;;;18.80;1.00;;;;;;5053278;28;20186;-63
2022/05/03 07:57:22;;;;;;;6.07;3.22;;;18.40;1.00;;;;;;5053009;28;20253;-62
2022/05/03 07:59:49;;;;;;;3.33;3.00;;;18.50;1.00;;;;;;5052854;28;20195;-61
2022/05/03 08:02:16;;;;;;;3.60;3.30;;;18.80;1.00;;;;;;5053055;28;20299;-61
2022/05/03 08:04:43;;;;;;;4.70;3.33;;;18.90;1.00;;;;;;5053541;28;20202;-61
2022/05/03 08:07:10;;;;;;;5.20;3.30;;;18.90;1.00;;;;;;5052969;28;20235;-62
2022/05/03 08:09:38;;;;;;;4.47;3.25;;;18.90;1.00;;;;;;5053367;28;20314;-62
2022/05/03 08:12:06;;;;;;;6.30;3.20;;;19.30;1.00;;;;;;5053289;28;20200;-61
2022/05/03 08:14:33;;;;;;;8.35;3.40;;;19.30;1.00;;;;;;5052903;28;20196;-61
2022/05/03 08:17:01;;;;;;;3.38;2.90;;;19.00;1.00;;;;;;5052805;28;20199;-61
2022/05/03 08:19:28;;;;;;;3.75;2.83;;;19.30;1.00;;;;;;5052905;28;20286;-61
2022/05/03 08:21:56;;;;;;;4.75;3.17;;;19.50;1.00;;;;;;5052923;28;20195;-61
2022/05/03 08:24:23;;;;;;;3.45;3.15;;;18.80;1.00;;;;;;5052687;28;20211;-61
2022/05/03 08:26:52;;;;;;;4.63;3.17;;;18.90;1.00;;;;;;5052291;28;20222;-62
2022/05/03 08:29:19;;;;;;;3.45;3.15;;;19.00;1.00;;;;;;5052717;28;20267;-61
2022/05/03 08:31:46;;;;;;;6.60;3.10;;;19.30;1.00;;;;;;5052304;28;20211;-61
2022/05/03 08:34:14;;;;;;;4.07;2.90;;;19.60;1.00;;;;;;5052528;28;20196;-61
2022/05/03 08:36:41;;;;;;;2.80;2.60;;;20.10;1.00;;;;;;5052572;28;20195;-62
2022/05/03 08:42:03;;;;;;;2.85;2.65;;;20.90;1.00;;;;;;5052691;28;20183;-61
2022/05/03 08:44:30;;;;;;;2.80;2.60;;;21.10;1.00;;;;;;5052658;28;20302;-61
2022/05/03 08:46:59;;;;;;;6.95;2.97;;;20.80;1.00;;;;;;5052012;28;20222;-61
2022/05/03 08:49:34;;;;;;;3.63;2.70;;;20.80;1.00;;;;;;5052494;28;20204;-61
2022/05/03 08:52:04;;;;;;;2.70;2.50;;;20.50;1.00;;;;;;5052460;28;20183;-61
2022/05/03 08:54:32;;;;;;;4.90;2.58;;;20.30;1.00;;;;;;5052002;28;20641;-62
2022/05/03 08:57:06;;;;;;;2.97;2.60;;;20.80;1.00;;;;;;5052425;28;20188;-62
2022/05/03 08:59:35;;;;;;;2.67;2.47;;;20.60;1.00;;;;;;5052252;28;20245;-62
2022/05/03 09:02:03;;;;;;;6.07;3.08;;;21.00;1.00;;;;;;5052096;28;20192;-61
2022/05/03 09:04:30;;;;;;;7.65;2.55;;;21.60;1.00;;;;;;5052340;28;20270;-61
2022/05/03 09:06:57;;;;;;;2.58;2.45;;;21.80;1.00;;;;;;5051936;28;20235;-61
2022/05/03 09:09:24;;;;;;;3.35;2.33;;;21.40;1.00;;;;;;5052107;28;20227;-62
2022/05/03 09:11:53;;;;;;;7.00;2.00;;;21.10;1.00;;;;;;5052142;28;20286;-62
2022/05/03 09:14:36;;;;;;;4.57;2.13;;;21.30;1.00;;;;;;5052060;28;20290;-61
2022/05/03 09:17:04;;;;;;;3.03;2.35;;;21.90;1.00;;;;;;5051679;28;20640;-62
2022/05/03 09:19:31;;;;;;;2.60;2.40;;;21.50;1.00;;;;;;5052086;28;20206;-62
2022/05/03 09:24:54;;;;;;;5.57;2.30;;;21.70;1.00;;;;;;5052168;28;20190;-62
2022/05/03 09:27:22;;;;;;;2.40;2.20;;;21.60;1.00;;;;;;5051955;28;20565;-62
2022/05/03 09:30:05;;;;;;;4.90;2.38;;;21.90;1.00;;;;;;5051884;28;20250;-62
2022/05/03 09:32:40;;;;;;;2.63;2.30;;;22.10;1.00;;;;;;5051963;28;20506;-62
2022/05/03 09:35:08;;;;;;;3.03;2.72;;;22.30;1.00;;;;;;5052055;28;20198;-61
2022/05/03 09:37:41;;;;;;;2.67;2.47;;;22.00;1.00;;;;;;5051813;28;20199;-62
2022/05/03 09:40:12;;;;;;;2.90;2.20;;;22.30;1.00;;;;;;5051822;28;20210;-62
2022/05/03 09:42:40;;;;;;;3.80;2.50;;;22.30;1.00;;;;;;5051837;28;20194;-62
2022/05/03 09:45:10;;;;;;;2.63;2.42;;;22.10;1.00;;;;;;5051840;28;20219;-62
2022/05/03 09:47:49;;;;;;;3.80;2.72;;;22.50;1.00;;;;;;5051665;28;20215;-62
2022/05/03 09:50:27;;;;;;;2.72;2.47;;;22.20;1.00;;;;;;5051867;28;20188;-62
2022/05/03 09:52:55;;;;;;;3.20;2.25;;;22.00;1.00;;;;;;5051737;28;20212;-62
2022/05/03 09:55:32;;;;;;;3.47;2.38;;;22.10;1.00;;;;;;5051862;28;20210;-62
2022/05/03 09:58:02;;;;;;;2.47;2.28;;;22.70;1.00;;;;;;5051815;28;20537;-62
2022/05/03 10:00:33;;;;;;;3.80;2.63;;;23.00;1.00;;;;;;5051580;28;20253;-61
2022/05/03 10:03:01;;;;;;;54.95;8.70;;;23.00;1.00;;;;;;5051847;28;20245;-62
2022/05/03 10:05:28;;;;;;;5.15;3.10;;;22.60;1.00;;;;;;5051707;28;20199;-62
2022/05/03 10:07:56;;;;;;;4.70;2.60;;;22.70;1.00;;;;;;5051204;28;20232;-61
2022/05/03 10:10:25;;;;;;;7.43;3.35;;;22.60;1.00;;;;;;5051195;28;20214;-62
2022/05/03 10:12:53;;;;;;;5.10;3.42;;;23.30;1.00;;;;;;5051252;28;20200;-62
2022/05/03 10:21:03;;;;;;;3.00;2.80;;;23.20;1.00;;;;;;5054791;28;20653;-62
2022/05/03 10:23:32;;;;;;;4.10;3.15;;;23.40;1.00;;;;;;5055135;28;20196;-62
2022/05/03 10:26:00;;;;;;;9.40;3.03;;;23.60;1.00;;;;;;5055055;28;20893;-62
2022/05/03 10:29:05;;;;;;;16.27;4.25;;;22.90;1.00;;;;;;5054726;28;20216;-62
2022/05/03 10:31:52;;;;;;;2.97;2.70;;;22.30;1.00;;;;;;5054762;28;20211;-63
2022/05/03 10:34:43;;;;;;;15.43;4.28;;;22.40;1.00;;;;;;5054553;28;20637;-62
2022/05/03 10:37:11;;;;;;;11.95;3.20;;;22.70;1.00;;;;;;5047515;28;20223;-62
2022/05/03 10:39:46;;;;;;;2.92;2.70;;;23.20;1.00;;;;;;5054527;28;20231;-62
2022/05/03 10:42:15;;;;;;;4.32;2.70;;;23.10;1.00;;;;;;5054706;28;20188;-63
2022/05/03 10:44:45;;;;;;;6.88;3.33;;;23.10;1.00;;;;;;5054764;28;20199;-63
2022/05/03 10:47:18;;;;;;;5.38;2.83;;;23.00;1.00;;;;;;5054503;28;20176;-62
2022/05/03 10:50:23;;;;;;;2.85;2.60;;;22.70;1.00;;;;;;5054587;28;20282;-62
2022/05/03 10:53:24;;;;;;;3.30;2.90;;;22.70;1.00;;;;;;5054534;28;20203;-62
2022/05/03 10:56:23;;;;;;;3.38;3.08;;;23.10;1.00;;;;;;5054497;28;20211;-63
2022/05/03 10:59:14;;;;;;;4.85;3.70;;;23.20;1.00;;;;;;5054357;28;20183;-63
2022/05/03 11:02:10;;;;;;;9.00;3.78;;;23.10;1.00;;;;;;5054031;28;20249;-63
2022/05/03 11:05:10;;;;;;;4.25;3.25;;;23.60;1.00;;;;;;5054264;28;20183;-61
2022/05/03 11:07:37;;;;;;;3.40;3.20;;;23.80;1.00;;;;;;5053746;28;20235;-62
2022/05/03 11:10:39;;;;;;;4.28;2.97;;;23.80;1.00;;;;;;5054277;28;20556;-63
2022/05/03 11:13:06;;;;;;;6.45;3.10;;;24.00;1.00;;;;;;5049716;28;20238;-62
2022/05/03 11:15:33;;;;;;;6.22;3.15;;;23.80;1.00;;;;;;5054088;28;20282;-63
2022/05/03 11:18:02;;;;;;;3.88;2.67;;;24.20;1.00;;;;;;5053937;28;20195;-62
2022/05/03 11:20:29;;;;;;;4.10;2.80;;;24.00;1.00;;;;;;5053961;28;20200;-62
2022/05/03 11:22:56;;;;;;;3.22;2.92;;;24.40;1.00;;;;;;5053624;28;20204;-62
2022/05/03 11:25:24;;;;;;;6.03;3.67;;;24.20;1.00;;;;;;5053819;28;20208;-62
2022/05/03 11:27:52;;;;;;;3.55;3.00;;;23.80;1.00;;;;;;5053849;28;20223;-61
2022/05/03 11:30:19;;;;;;;3.20;3.00;;;23.80;1.00;;;;;;5053597;28;20206;-62
2022/05/03 11:32:46;;;;;;;3.13;2.92;;;24.40;1.00;;;;;;5053804;28;20211;-60
2022/05/03 11:35:16;;;;;;;4.00;2.90;;;24.70;1.00;;;;;;5054734;28;20207;-61
2022/05/03 11:37:48;;;;;;;4.18;3.60;;;24.40;1.00;;;;;;5053057;28;20245;-61
2022/05/03 11:40:16;;;;;;;5.93;3.90;;;24.50;1.00;;;;;;5053270;28;20206;-62
2022/05/03 11:42:45;;;;;;;4.07;3.75;;;24.40;1.00;;;;;;5053652;28;20250;-61
2022/05/03 11:45:13;;;;;;;3.80;3.30;;;23.80;1.00;;;;;;5052311;28;20191;-62
2022/05/03 11:47:42;;;;;;;3.63;3.33;;;24.00;1.00;;;;;;5049975;28;20242;-61
2022/05/03 11:50:12;;;;;;;4.13;3.70;;;23.80;1.00;;;;;;5053677;28;20222;-62
2022/05/03 11:58:10;;;;;;;5.07;3.60;;;23.90;1.00;;;;;;5053019;28;20206;-63
2022/05/03 12:00:48;;;;;;;6.30;3.47;;;23.80;1.00;;;;;;5053305;28;20191;-62
2022/05/03 12:03:15;;;;;;;3.33;3.13;;;23.80;1.00;;;;;;5053166;28;20206;-63
2022/05/03 12:06:00;;;;;;;3.40;3.10;;;24.10;1.00;;;;;;5053092;28;20230;-62
2022/05/03 12:08:30;;;;;;;6.75;3.20;;;24.60;1.00;;;;;;5052450;28;20243;-63
2022/05/03 12:10:57;;;;;;;3.72;3.20;;;24.40;1.00;;;;;;5052935;28;20203;-63
2022/05/03 12:13:34;;;;;;;3.50;3.30;;;24.60;1.00;;;;;;5052090;28;20215;-62
2022/05/03 12:16:11;;;;;;;3.75;3.50;;;24.40;1.00;;;;;;5052498;28;20180;-62
2022/05/03 12:18:40;;;;;;;3.63;3.33;;;24.00;1.00;;;;;;5052605;28;20180;-62
2022/05/03 12:21:10;;;;;;;3.65;3.35;;;23.50;1.00;;;;;;5052955;28;20211;-64
2022/05/03 12:23:44;;;;;;;5.03;2.97;;;23.50;1.00;;;;;;5052346;28;20207;-63
2022/05/03 12:26:21;;;;;;;6.35;3.13;;;23.30;1.00;;;;;;5052627;28;20194;-63
2022/05/03 12:28:50;;;;;;;4.82;2.75;;;23.40;1.00;;;;;;5052566;28;20199;-65
2022/05/03 12:31:19;;;;;;;2.55;2.35;;;22.10;1.00;;;;;;5052484;28;20284;-66
2022/05/03 12:33:48;;;;;;;4.30;3.25;;;21.10;1.00;;;;;;5052407;28;20674;-65
2022/05/03 12:36:33;;;;;;;4.00;3.25;;;21.70;1.00;;;;;;5051912;28;20257;-65
2022/05/03 12:39:15;;;;;;;3.15;2.85;;;22.60;1.00;;;;;;5052888;28;20206;-65
2022/05/03 12:41:43;;;;;;;6.60;3.20;;;23.10;1.00;;;;;;5052712;28;20180;-62
2022/05/03 12:44:12;;;;;;;12.32;3.28;;;23.50;1.00;;;;;;5052076;28;20660;-63
2022/05/03 12:46:40;;;;;;;10.57;3.13;;;23.80;1.00;;;;;;5052234;28;20302;-63
2022/05/03 12:49:11;;;;;;;3.50;3.22;;;22.90;1.00;;;;;;5052344;28;20929;-63
2022/05/03 12:51:40;;;;;;;6.63;3.40;;;21.80;1.00;;;;;;5052415;28;20195;-63
2022/05/03 12:54:08;;;;;;;2.97;2.67;;;22.20;1.00;;;;;;5052064;28;20302;-63
2022/05/03 12:59:22;;;;;;;4.75;2.83;;;23.30;1.00;;;;;;5051930;28;20175;-63
2022/05/03 13:01:50;;;;;;;4.82;3.70;;;23.00;1.00;;;;;;5051513;28;20879;-62
2022/05/03 13:04:18;;;;;;;3.63;3.30;;;22.80;1.00;;;;;;5051750;28;20648;-63
2022/05/03 13:06:45;;;;;;;7.03;4.10;;;21.50;1.00;;;;;;5051968;28;20204;-63
2022/05/03 13:09:13;;;;;;;25.90;5.80;;;21.20;1.00;;;;;;5051933;28;20200;-63
2022/05/03 13:11:41;;;;;;;6.07;3.65;;;21.70;1.00;;;;;;5051939;28;20191;-63
2022/05/03 13:14:10;;;;;;;7.10;3.28;;;21.90;1.00;;;;;;5052315;28;20211;-63
2022/05/03 13:16:38;;;;;;;8.75;4.07;;;21.30;1.00;;;;;;5051645;28;20668;-63
2022/05/03 13:19:06;;;;;;;4.15;3.05;;;21.40;1.00;;;;;;5052428;28;20207;-63
2022/05/03 13:21:36;;;;;;;3.60;3.08;;;21.80;1.00;;;;;;5051698;28;20199;-63
2022/05/03 13:24:05;;;;;;;4.20;3.83;;;21.80;1.00;;;;;;5051969;28;20179;-62
2022/05/03 13:26:32;;;;;;;8.07;4.60;;;21.50;1.00;;;;;;5051690;28;20656;-63
2022/05/03 13:29:01;;;;;;;7.55;3.95;;;21.30;1.00;;;;;;5051308;28;20277;-62
2022/05/03 13:31:29;;;;;;;3.08;2.80;;;21.50;1.00;;;;;;5051664;28;20556;-62
2022/05/03 13:33:56;;;;;;;4.93;3.45;;;22.20;1.00;;;;;;5051322;28;20299;-62
2022/05/03 13:41:58;;;;;;;4.63;3.17;;;20.90;1.00;;;;;;5009626;28;20197;-62
2022/05/03 13:44:27;;;;;;;7.85;3.17;;;20.70;1.00;;;;;;5008897;28;20212;-63
2022/05/03 13:46:54;;;;;;;3.53;3.22;;;21.10;1.00;;;;;;5009227;28;20272;-64
2022/05/03 13:49:22;;;;;;;4.10;3.80;;;21.60;1.00;;;;;;5011682;28;20220;-65
2022/05/03 13:51:49;;;;;;;4.13;3.83;;;21.60;1.00;;;;;;5013622;28;20215;-65
2022/05/03 13:54:16;;;;;;;4.32;3.50;;;21.50;1.00;;;;;;5013699;28;20621;-64